Time;durP1;ratioP1;P1;durP2;ratioP2;P2;SDS_P1;SDS_P2;PMS_P1;PMS_P2;Temp;Humidity;BMP_temperature;BMP_pressure;BME280_temperature;BME280_humidity;BME280_pressure;Samples;Min_cycle;Max_cycle;Signal;HPM_P1;HPM_P2
2023/10/29 00:00:50;;;;;;;9.30;3.40;;;;;;;11.39;73.16;98357.80;108472;1250;94640;-80
2023/10/29 00:03:43;;;;;;;12.20;4.20;;;;;;;11.38;73.00;98357.90;108636;1250;113468;-81
2023/10/29 00:06:14;;;;;;;8.90;4.20;;;;;;;11.37;73.15;98360.81;108606;1252;94448;-81
2023/10/29 00:08:45;;;;;;;11.20;3.70;;;;;;;11.38;73.16;98364.84;108688;1252;107706;-80
2023/10/29 00:11:15;;;;;;;16.30;3.90;;;;;;;11.40;73.17;98369.29;108795;1251;94279;-80
2023/10/29 00:13:43;;;;;;;11.60;4.00;;;;;;;11.42;73.05;98368.23;108813;1250;94545;-81
2023/10/29 00:16:14;;;;;;;9.90;3.90;;;;;;;11.43;73.07;98362.76;108625;1250;109861;-81
2023/10/29 00:18:42;;;;;;;8.90;3.30;;;;;;;11.43;73.13;98357.26;108738;1251;95829;-83
2023/10/29 00:21:13;;;;;;;8.50;3.30;;;;;;;11.44;73.01;98358.08;108649;1252;106658;-80
2023/10/29 00:23:43;;;;;;;10.30;3.70;;;;;;;11.43;73.09;98360.79;108670;1252;94290;-81
2023/10/29 00:26:13;;;;;;;8.10;3.10;;;;;;;11.43;73.02;98365.48;108801;1250;94659;-80
2023/10/29 00:28:41;;;;;;;8.10;3.30;;;;;;;11.42;73.15;98360.60;108722;1250;108063;-80
2023/10/29 00:31:09;;;;;;;7.70;2.90;;;;;;;11.41;72.96;98356.19;108625;1250;94862;-80
2023/10/29 00:33:40;;;;;;;9.70;3.20;;;;;;;11.39;72.99;98361.57;108783;1250;107108;-80
2023/10/29 00:36:08;;;;;;;9.40;3.30;;;;;;;11.38;73.07;98361.42;108799;1252;94317;-80
2023/10/29 00:38:39;;;;;;;11.60;3.30;;;;;;;11.37;73.01;98365.10;108590;1250;94584;-80
2023/10/29 00:41:09;;;;;;;10.10;3.60;;;;;;;11.37;72.97;98363.89;108675;1251;109911;-81
2023/10/29 00:43:40;;;;;;;9.70;3.50;;;;;;;11.36;73.05;98361.33;108610;1250;96837;-80
2023/10/29 00:46:13;;;;;;;10.10;3.50;;;;;;;11.35;72.94;98363.34;108746;1251;107477;-81
2023/10/29 00:48:41;;;;;;;10.40;3.80;;;;;;;11.34;73.00;98362.00;108637;1253;94547;-80
2023/10/29 00:51:10;;;;;;;10.30;3.90;;;;;;;11.35;73.04;98363.16;108908;1250;94264;-82
2023/10/29 00:53:39;;;;;;;9.00;3.60;;;;;;;11.36;72.81;98359.73;108831;1256;109848;-82
2023/10/29 00:56:15;;;;;;;6.30;3.30;;;;;;;11.37;72.97;98357.14;108915;1250;94529;-80
2023/10/29 00:58:51;;;;;;;11.90;3.80;;;;;;;11.37;72.88;98361.52;108694;1251;107962;-81
2023/10/29 01:01:19;;;;;;;11.10;3.40;;;;;;;11.38;72.86;98358.99;108747;1250;94565;-81
2023/10/29 01:03:49;;;;;;;9.00;3.20;;;;;;;11.38;72.92;98362.38;108611;1253;94504;-83
2023/10/29 01:06:18;;;;;;;8.50;3.30;;;;;;;11.40;72.90;98362.91;108583;1253;109813;-82
2023/10/29 01:08:47;;;;;;;8.30;3.30;;;;;;;11.41;72.83;98367.09;108763;1250;95437;-82
2023/10/29 01:11:15;;;;;;;10.80;3.80;;;;;;;11.41;72.93;98363.34;108558;1252;108279;-83
2023/10/29 01:13:44;;;;;;;7.50;3.60;;;;;;;11.41;72.83;98366.67;108682;1250;94541;-83
2023/10/29 01:16:13;;;;;;;10.20;3.80;;;;;;;11.40;72.86;98368.21;108729;1250;94577;-82
2023/10/29 01:18:41;;;;;;;7.10;3.30;;;;;;;11.37;72.72;98370.06;108684;1257;109743;-83
2023/10/29 01:21:10;;;;;;;7.90;3.00;;;;;;;11.33;72.80;98373.58;108593;1250;95071;-80
2023/10/29 01:23:40;;;;;;;10.50;3.50;;;;;;;11.29;72.64;98370.91;108660;1256;107474;-80
2023/10/29 01:26:08;;;;;;;8.00;3.50;;;;;;;11.25;72.65;98362.03;108549;1253;94399;-80
2023/10/29 01:28:39;;;;;;;13.80;4.60;;;;;;;11.22;72.65;98361.63;108810;1250;94502;-80
2023/10/29 01:31:10;;;;;;;8.30;3.70;;;;;;;11.19;72.61;98363.98;108614;1250;110245;-81
2023/10/29 01:33:39;;;;;;;9.10;3.30;;;;;;;11.15;72.65;98362.52;108796;1250;95191;-81
2023/10/29 01:36:10;;;;;;;8.50;3.20;;;;;;;11.12;72.57;98369.38;108746;1254;108228;-81
2023/10/29 01:38:42;;;;;;;9.80;3.40;;;;;;;11.10;72.62;98374.02;108661;1253;94256;-80
2023/10/29 01:41:11;;;;;;;11.10;3.50;;;;;;;11.08;72.64;98376.30;108619;1254;94703;-80
2023/10/29 01:43:42;;;;;;;11.90;3.90;;;;;;;11.07;72.58;98371.95;108642;1256;109998;-80
2023/10/29 01:46:13;;;;;;;7.70;3.10;;;;;;;11.04;72.55;98371.32;108533;1252;95303;-80
2023/10/29 01:48:41;;;;;;;8.40;3.50;;;;;;;11.01;72.63;98374.14;108639;1251;107064;-81
2023/10/29 01:51:09;;;;;;;11.30;3.30;;;;;;;11.00;72.52;98374.97;108590;1253;94295;-81
2023/10/29 01:53:38;;;;;;;7.10;2.80;;;;;;;10.97;72.56;98377.70;108574;1252;94680;-81
2023/10/29 01:56:07;;;;;;;7.20;2.60;;;;;;;10.95;72.60;98376.31;108591;1251;109506;-81
2023/10/29 01:58:35;;;;;;;7.10;3.00;;;;;;;10.93;72.55;98375.41;108750;1251;95428;-82
2023/10/29 02:01:13;;;;;;;9.30;3.00;;;;;;;10.93;72.53;98370.64;108836;1251;107396;-81
2023/10/29 02:03:49;;;;;;;7.90;3.20;;;;;;;10.94;72.53;98373.02;108657;1253;94440;-83
2023/10/29 02:06:18;;;;;;;8.30;3.30;;;;;;;10.95;72.65;98368.01;108789;1251;94702;-81
2023/10/29 02:08:46;;;;;;;6.30;3.30;;;;;;;10.97;72.52;98364.83;108862;1251;109934;-80
2023/10/29 02:11:14;;;;;;;7.90;3.00;;;;;;;10.97;72.50;98367.77;108917;1251;95870;-81
2023/10/29 02:13:44;;;;;;;9.40;3.50;;;;;;;10.98;72.51;98370.91;108723;1252;107537;-82
2023/10/29 02:16:13;;;;;;;7.10;2.90;;;;;;;10.98;72.51;98373.20;108498;1253;94339;-80
2023/10/29 02:18:44;;;;;;;10.30;3.10;;;;;;;10.99;72.42;98381.50;108600;1253;94459;-81
2023/10/29 02:21:13;;;;;;;6.50;2.60;;;;;;;10.99;72.49;98379.21;108702;1253;109904;-81
2023/10/29 02:23:54;;;;;;;6.00;2.90;;;;;;;10.98;72.64;98384.35;108594;1253;94318;-81
2023/10/29 02:26:25;;;;;;;7.90;2.90;;;;;;;11.00;72.46;98392.73;108540;1253;107876;-81
2023/10/29 02:28:55;;;;;;;6.40;2.80;;;;;;;11.01;72.41;98396.38;108567;1254;94466;-81
2023/10/29 02:31:24;;;;;;;8.40;2.60;;;;;;;11.02;72.47;98402.29;108834;1252;94525;-81
2023/10/29 02:33:52;;;;;;;7.60;2.80;;;;;;;11.05;72.45;98406.51;108674;1251;109490;-82
2023/10/29 02:36:20;;;;;;;7.40;2.80;;;;;;;11.07;72.42;98405.48;108671;1252;95490;-81
2023/10/29 02:38:53;;;;;;;6.40;2.50;;;;;;;11.09;72.54;98409.89;108554;1251;107162;-82
2023/10/29 02:41:21;;;;;;;6.80;2.90;;;;;;;11.09;72.53;98409.71;108830;1250;94317;-81
2023/10/29 02:43:53;;;;;;;8.70;2.80;;;;;;;11.09;72.47;98410.73;108737;1250;94353;-81
2023/10/29 02:46:21;;;;;;;6.00;2.60;;;;;;;11.10;72.51;98415.63;108739;1253;109465;-80
2023/10/29 02:48:49;;;;;;;7.10;3.00;;;;;;;11.09;72.42;98416.80;108585;1253;95182;-81
2023/10/29 02:51:17;;;;;;;5.70;2.30;;;;;;;11.09;72.48;98416.48;108680;1250;107599;-81
2023/10/29 02:53:49;;;;;;;9.60;2.40;;;;;;;11.08;72.47;98416.36;108647;1251;94246;-80
2023/10/29 02:56:18;;;;;;;6.00;2.50;;;;;;;11.10;72.41;98419.60;108569;1251;95034;-81
2023/10/29 02:58:46;;;;;;;6.00;2.10;;;;;;;11.10;72.46;98427.49;108517;1252;109144;-81
2023/10/29 03:01:16;;;;;;;3.10;2.10;;;;;;;11.11;72.46;98429.63;108694;1250;95248;-81
2023/10/29 03:03:48;;;;;;;6.50;2.30;;;;;;;11.10;72.37;98431.62;108701;1252;107642;-82
2023/10/29 03:06:17;;;;;;;4.50;2.20;;;;;;;11.11;72.41;98427.01;108697;1253;94677;-81
2023/10/29 03:08:47;;;;;;;7.20;2.60;;;;;;;11.11;72.44;98430.86;108683;1252;94311;-82
2023/10/29 03:11:18;;;;;;;3.10;2.20;;;;;;;11.10;72.34;98437.11;108547;1250;110142;-80
2023/10/29 03:13:49;;;;;;;3.50;2.10;;;;;;;11.10;72.35;98439.63;108703;1250;96032;-81
2023/10/29 03:16:19;;;;;;;6.00;2.10;;;;;;;11.09;72.37;98443.29;108648;1250;107586;-81
2023/10/29 03:18:47;;;;;;;5.60;3.10;;;;;;;11.09;72.27;98444.19;108640;1250;94677;-81
2023/10/29 03:21:19;;;;;;;6.70;2.30;;;;;;;11.08;72.35;98446.01;108628;1251;94534;-82
2023/10/29 03:23:51;;;;;;;4.90;1.90;;;;;;;11.08;72.29;98449.54;108713;1253;109982;-81
2023/10/29 03:26:19;;;;;;;5.90;2.30;;;;;;;11.06;72.38;98450.21;108551;1252;95293;-81
2023/10/29 03:28:49;;;;;;;7.80;2.40;;;;;;;11.06;72.37;98454.50;108704;1250;106283;-81
2023/10/29 03:31:19;;;;;;;4.10;2.20;;;;;;;11.05;72.28;98458.87;108582;1252;94667;-81
2023/10/29 03:33:47;;;;;;;5.10;2.70;;;;;;;11.04;72.28;98458.08;108581;1253;94707;-81
2023/10/29 03:36:15;;;;;;;5.60;2.30;;;;;;;11.03;72.25;98465.38;108683;1251;110805;-80
2023/10/29 03:38:43;;;;;;;5.40;2.30;;;;;;;11.04;72.23;98469.78;108813;1250;95310;-81
2023/10/29 03:41:19;;;;;;;5.50;2.40;;;;;;;11.02;72.22;98465.99;108844;1252;107195;-82
2023/10/29 03:43:55;;;;;;;3.90;2.00;;;;;;;11.01;72.22;98467.00;108711;1252;94215;-81
2023/10/29 03:46:29;;;;;;;5.50;2.10;;;;;;;11.00;72.25;98464.19;108574;1251;94818;-81
2023/10/29 03:48:57;;;;;;;4.40;2.10;;;;;;;11.01;72.29;98462.20;108658;1252;109882;-80
2023/10/29 03:51:28;;;;;;;2.70;1.90;;;;;;;11.00;72.21;98457.98;108862;1252;95343;-80
2023/10/29 03:54:01;;;;;;;6.80;2.40;;;;;;;10.99;72.26;98452.40;108637;1252;106683;-82
2023/10/29 03:56:29;;;;;;;8.90;2.60;;;;;;;10.97;72.25;98447.23;108791;1250;94902;-81
2023/10/29 03:58:57;;;;;;;6.60;3.20;;;;;;;10.98;72.24;98449.66;108715;1250;94255;-81
2023/10/29 04:01:32;;;;;;;5.70;2.10;;;;;;;10.99;72.20;98447.50;108571;1250;108874;-81
2023/10/29 04:04:03;;;;;;;4.00;2.10;;;;;;;10.99;72.22;98445.34;108798;1250;94355;-81
2023/10/29 04:06:33;;;;;;;6.30;2.20;;;;;;;10.98;72.18;98440.65;108773;1251;107284;-82
2023/10/29 04:09:05;;;;;;;4.30;1.90;;;;;;;10.97;72.25;98444.40;108834;1250;94334;-81
2023/10/29 04:11:37;;;;;;;7.00;2.40;;;;;;;10.97;72.16;98438.60;108860;1251;94317;-81
2023/10/29 04:14:05;;;;;;;5.40;2.20;;;;;;;10.95;72.22;98435.88;108838;1251;109980;-80
2023/10/29 04:16:34;;;;;;;4.70;2.10;;;;;;;10.95;72.21;98446.91;108825;1253;94325;-81
2023/10/29 04:19:02;;;;;;;2.90;1.80;;;;;;;10.95;72.25;98451.73;108815;1251;107572;-81
2023/10/29 04:21:34;;;;;;;4.10;1.90;;;;;;;10.95;72.26;98452.61;108800;1251;94432;-82
2023/10/29 04:24:03;;;;;;;5.00;2.10;;;;;;;10.94;72.15;98452.82;108841;1251;94351;-80
2023/10/29 04:26:31;;;;;;;4.60;2.40;;;;;;;10.92;72.18;98454.05;108699;1249;110426;-82
2023/10/29 04:29:01;;;;;;;4.10;2.40;;;;;;;10.91;72.05;98452.64;108773;1251;95562;-81
2023/10/29 04:31:29;;;;;;;2.90;1.60;;;;;;;10.87;72.19;98451.13;108687;1251;107441;-80
2023/10/29 04:33:57;;;;;;;6.30;2.20;;;;;;;10.86;72.13;98453.67;108844;1250;94248;-81
2023/10/29 04:36:25;;;;;;;6.00;2.30;;;;;;;10.85;72.22;98451.23;108783;1251;94282;-81
2023/10/29 04:39:02;;;;;;;5.10;2.00;;;;;;;10.86;72.18;98453.66;108853;1256;110230;-81
2023/10/29 04:41:35;;;;;;;3.70;2.40;;;;;;;10.88;72.22;98456.18;108644;1250;95110;-82
2023/10/29 04:44:05;;;;;;;6.80;2.50;;;;;;;10.90;72.23;98453.16;108867;1250;107634;-81
2023/10/29 04:46:32;;;;;;;4.90;2.30;;;;;;;10.91;72.16;98446.88;108794;1251;94270;-81
2023/10/29 04:49:01;;;;;;;5.60;2.20;;;;;;;10.91;72.20;98448.48;108699;1251;94558;-81
2023/10/29 04:51:30;;;;;;;14.10;3.60;;;;;;;10.91;72.09;98452.73;108822;1250;110869;-80
2023/10/29 04:54:04;;;;;;;4.10;2.20;;;;;;;10.92;72.27;98451.59;108908;1250;95427;-81
2023/10/29 04:56:34;;;;;;;5.70;2.20;;;;;;;10.92;72.12;98453.02;108848;1250;107906;-81
2023/10/29 04:59:02;;;;;;;7.30;2.90;;;;;;;10.90;72.08;98453.33;108681;1251;94531;-81
2023/10/29 05:01:30;;;;;;;9.40;3.10;;;;;;;10.88;72.06;98457.61;108774;1255;94417;-80
2023/10/29 05:03:58;;;;;;;4.50;2.10;;;;;;;10.87;72.12;98462.07;108926;1250;109899;-80
2023/10/29 05:06:30;;;;;;;3.60;1.90;;;;;;;10.85;72.06;98462.48;108869;1250;95308;-81
2023/10/29 05:08:58;;;;;;;6.80;2.20;;;;;;;10.79;72.05;98461.02;108768;1250;107701;-80
2023/10/29 05:11:27;;;;;;;5.20;2.30;;;;;;;10.77;72.06;98466.37;108800;1251;94444;-81
2023/10/29 05:13:55;;;;;;;6.60;2.70;;;;;;;10.73;72.12;98462.39;108783;1253;94760;-81
2023/10/29 05:16:25;;;;;;;7.10;2.70;;;;;;;10.70;72.10;98464.10;108810;1251;109311;-81
2023/10/29 05:18:53;;;;;;;6.80;2.70;;;;;;;10.70;72.10;98462.48;108834;1251;95592;-81
2023/10/29 05:21:21;;;;;;;5.40;2.70;;;;;;;10.71;72.15;98463.23;108669;1251;107634;-82
2023/10/29 05:23:50;;;;;;;9.80;2.40;;;;;;;10.72;72.20;98459.62;108804;1250;94471;-81
2023/10/29 05:26:23;;;;;;;7.20;2.40;;;;;;;10.74;72.25;98462.69;108822;1251;94319;-81
2023/10/29 05:29:05;;;;;;;4.80;2.20;;;;;;;10.76;72.16;98464.85;108846;1251;108981;-81
2023/10/29 05:31:39;;;;;;;;;;;;;;;10.78;72.24;98468.18;108844;1250;96039;-81
2023/10/29 05:34:07;;;;;;;4.90;2.00;;;;;;;10.78;72.22;98469.95;108819;1252;107314;-81
2023/10/29 05:36:39;;;;;;;3.90;2.20;;;;;;;10.80;72.18;98466.60;108640;1252;94687;-81
2023/10/29 05:39:09;;;;;;;4.70;2.40;;;;;;;10.82;72.27;98463.27;108685;1251;94333;-81
2023/10/29 05:41:39;;;;;;;6.30;2.60;;;;;;;10.85;72.23;98465.09;108774;1251;109936;-82
2023/10/29 05:44:09;;;;;;;6.80;2.40;;;;;;;10.87;72.12;98470.26;108837;1251;95441;-81
2023/10/29 05:46:43;;;;;;;6.40;2.50;;;;;;;10.88;72.27;98468.02;108821;1251;107678;-81
2023/10/29 05:49:13;;;;;;;4.70;2.10;;;;;;;10.91;72.24;98472.08;108524;1251;94501;-81
2023/10/29 05:51:41;;;;;;;7.90;2.70;;;;;;;10.93;72.21;98471.01;107140;1250;2289774;-81
2023/10/29 05:54:13;;;;;;;4.70;2.30;;;;;;;10.95;72.29;98473.69;108820;1250;109533;-81
2023/10/29 05:56:43;;;;;;;;;;;;;;;10.98;72.28;98474.55;108876;1249;95259;-81
2023/10/29 05:59:12;;;;;;;5.80;2.60;;;;;;;11.00;72.28;98472.60;108900;1250;107577;-81
2023/10/29 06:01:40;;;;;;;6.40;2.50;;;;;;;11.03;72.29;98478.86;108806;1250;94455;-81
2023/10/29 06:04:17;;;;;;;8.40;2.60;;;;;;;11.05;72.24;98486.52;108662;1250;94464;-83
2023/10/29 06:06:46;;;;;;;4.80;2.20;;;;;;;11.06;72.33;98489.14;108664;1250;109884;-82
2023/10/29 06:09:21;;;;;;;8.20;2.90;;;;;;;11.09;72.34;98490.67;108760;1251;96051;-82
2023/10/29 06:11:52;;;;;;;5.90;2.50;;;;;;;11.12;72.34;98488.06;108847;1251;108774;-80
2023/10/29 06:14:23;;;;;;;7.70;2.80;;;;;;;11.15;72.25;98487.98;108775;1250;94311;-78
2023/10/29 06:16:56;;;;;;;6.30;2.80;;;;;;;11.18;72.26;98490.06;108818;1251;94332;-77
2023/10/29 06:19:38;;;;;;;4.80;2.50;;;;;;;11.21;72.26;98486.60;108891;1251;109571;-78
2023/10/29 06:22:07;;;;;;;6.70;2.70;;;;;;;11.22;72.30;98490.42;108853;1253;95677;-78
2023/10/29 06:24:35;;;;;;;7.30;2.30;;;;;;;11.25;72.33;98484.69;108801;1251;107251;-78
2023/10/29 06:27:06;;;;;;;5.30;2.40;;;;;;;11.29;72.26;98485.77;108831;1256;94279;-77
2023/10/29 06:29:38;;;;;;;5.40;2.60;;;;;;;11.32;72.27;98486.25;108833;1251;94261;-80
2023/10/29 06:32:10;;;;;;;6.80;2.80;;;;;;;11.36;72.27;98495.35;108826;1256;109950;-79
2023/10/29 06:34:38;;;;;;;5.20;2.30;;;;;;;11.37;72.28;98494.73;109013;1251;95476;-80
2023/10/29 06:37:06;;;;;;;8.40;2.80;;;;;;;11.36;72.28;98494.59;108781;1250;108168;-82
2023/10/29 06:39:38;;;;;;;6.90;3.40;;;;;;;11.38;72.28;98497.77;108777;1251;94357;-80
2023/10/29 06:42:06;;;;;;;6.30;2.70;;;;;;;11.40;72.35;98501.36;108780;1251;97212;-79
2023/10/29 06:44:34;;;;;;;4.40;2.70;;;;;;;11.41;72.35;98503.60;108808;1251;109330;-79
2023/10/29 06:47:05;;;;;;;6.20;2.50;;;;;;;11.40;72.30;98501.52;108860;1255;96103;-79
2023/10/29 06:49:35;;;;;;;9.00;3.30;;;;;;;11.42;72.36;98504.52;108790;1251;107699;-82
2023/10/29 06:52:03;;;;;;;6.60;2.70;;;;;;;11.46;72.40;98509.52;108766;1251;94273;-80
2023/10/29 06:54:31;;;;;;;5.40;2.30;;;;;;;11.50;72.50;98514.92;108830;1251;94649;-79
2023/10/29 06:56:59;;;;;;;6.50;2.80;;;;;;;11.53;72.32;98522.45;108758;1251;110064;-80
2023/10/29 06:59:35;;;;;;;5.60;2.60;;;;;;;11.57;72.44;98517.09;108849;1251;94426;-79
2023/10/29 07:02:03;;;;;;;5.00;2.60;;;;;;;11.61;72.33;98518.94;108970;1251;105895;-80
2023/10/29 07:04:31;;;;;;;5.50;2.30;;;;;;;11.62;72.34;98516.72;108852;1250;94323;-77
2023/10/29 07:07:02;;;;;;;5.00;2.30;;;;;;;11.63;72.38;98517.11;108921;1251;94239;-80
2023/10/29 07:09:31;;;;;;;4.00;2.40;;;;;;;11.66;72.38;98521.92;108794;1251;109635;-80
2023/10/29 07:11:59;;;;;;;8.30;2.60;;;;;;;11.68;72.36;98527.07;108954;1251;95084;-80
2023/10/29 07:14:29;;;;;;;5.50;2.70;;;;;;;11.69;72.50;98522.85;108867;1250;107881;-79
2023/10/29 07:16:57;;;;;;;5.80;2.80;;;;;;;11.75;72.45;98525.52;108952;1249;94318;-82
2023/10/29 07:19:25;;;;;;;7.10;2.50;;;;;;;11.85;72.55;98526.06;108888;1251;94294;-80
2023/10/29 07:21:53;;;;;;;2.70;2.00;;;;;;;12.00;72.63;98528.06;108818;1251;109580;-79
2023/10/29 07:24:21;;;;;;;3.40;2.00;;;;;;;12.15;72.55;98528.86;108821;1251;94612;-79
2023/10/29 07:26:49;;;;;;;5.90;2.50;;;;;;;12.30;72.58;98525.42;108816;1251;107400;-79
2023/10/29 07:29:18;;;;;;;7.80;2.80;;;;;;;12.44;72.60;98526.02;108909;1249;94469;-79
2023/10/29 07:31:47;;;;;;;5.50;2.00;;;;;;;12.57;72.60;98522.88;108953;1252;95788;-78
2023/10/29 07:34:16;;;;;;;4.60;2.20;;;;;;;12.70;72.43;98522.94;108858;1252;109716;-79
2023/10/29 07:36:44;;;;;;;7.00;2.30;;;;;;;12.83;72.62;98522.17;108957;1251;94678;-79
2023/10/29 07:39:15;;;;;;;5.70;2.50;;;;;;;12.90;72.48;98522.22;108958;1249;107807;-78
2023/10/29 07:41:43;;;;;;;10.10;3.40;;;;;;;12.93;72.46;98517.99;108925;1251;94232;-79
2023/10/29 07:44:11;;;;;;;4.70;2.90;;;;;;;12.93;72.41;98515.88;108902;1249;94540;-79
2023/10/29 07:46:39;;;;;;;6.60;2.30;;;;;;;12.90;72.31;98511.96;108983;1251;109553;-79
2023/10/29 07:49:07;;;;;;;7.50;2.80;;;;;;;12.87;72.33;98509.66;108843;1251;95184;-79
2023/10/29 07:51:39;;;;;;;5.80;2.70;;;;;;;12.88;72.46;98511.95;108875;1251;107673;-83
2023/10/29 07:54:07;;;;;;;6.90;2.60;;;;;;;12.86;72.32;98511.55;108822;1251;96149;-78
2023/10/29 07:56:36;;;;;;;6.30;2.40;;;;;;;12.85;72.38;98510.96;108865;1251;94368;-79
2023/10/29 07:59:04;;;;;;;8.20;2.70;;;;;;;12.86;72.38;98511.79;108828;1251;109384;-78
2023/10/29 08:01:32;;;;;;;8.40;3.20;;;;;;;12.87;72.42;98507.95;108957;1250;95237;-78
2023/10/29 08:04:00;;;;;;;4.40;2.60;;;;;;;12.88;72.37;98507.80;108756;1251;107071;-79
2023/10/29 08:06:28;;;;;;;6.80;2.90;;;;;;;12.90;72.37;98513.69;108943;1249;94603;-77
2023/10/29 08:08:59;;;;;;;6.40;2.80;;;;;;;12.92;72.22;98509.98;108938;1251;94618;-78
2023/10/29 08:11:29;;;;;;;8.50;2.80;;;;;;;12.92;72.23;98512.93;108854;1249;110369;-78
2023/10/29 08:14:00;;;;;;;6.10;2.80;;;;;;;12.93;72.21;98507.02;108733;1251;95205;-78
2023/10/29 08:16:28;;;;;;;6.40;2.50;;;;;;;12.93;72.19;98505.63;108923;1249;107695;-80
2023/10/29 08:18:59;;;;;;;6.20;2.80;;;;;;;12.93;72.20;98503.44;108931;1249;94297;-76
2023/10/29 08:21:29;;;;;;;13.30;3.30;;;;;;;12.95;72.17;98512.52;108887;1251;94366;-78
2023/10/29 08:23:57;;;;;;;6.70;3.00;;;;;;;12.97;72.23;98518.75;108888;1251;108407;-79
2023/10/29 08:26:28;;;;;;;6.50;2.80;;;;;;;12.99;72.17;98516.98;108909;1251;94596;-78
2023/10/29 08:28:56;;;;;;;6.20;2.70;;;;;;;13.01;72.15;98511.77;108866;1249;107438;-78
2023/10/29 08:31:24;;;;;;;9.70;3.30;;;;;;;13.03;72.11;98511.84;108819;1250;94306;-81
2023/10/29 08:33:54;;;;;;;10.20;3.60;;;;;;;13.04;72.16;98514.00;108843;1251;94269;-79
2023/10/29 08:36:24;;;;;;;10.80;4.00;;;;;;;13.07;72.13;98509.32;108997;1249;110059;-78
2023/10/29 08:38:52;;;;;;;11.60;3.50;;;;;;;13.08;72.05;98511.30;108854;1249;95716;-78
2023/10/29 08:41:20;;;;;;;7.30;3.00;;;;;;;13.12;71.98;98507.27;108888;1249;107088;-78
2023/10/29 08:43:48;;;;;;;7.70;3.10;;;;;;;13.15;71.96;98507.72;108801;1251;94610;-79
2023/10/29 08:46:20;;;;;;;5.60;2.90;;;;;;;13.16;71.92;98506.73;108995;1249;94558;-78
2023/10/29 08:48:51;;;;;;;7.60;2.90;;;;;;;13.20;72.01;98512.82;108990;1251;108000;-80
2023/10/29 08:51:19;;;;;;;9.20;3.00;;;;;;;13.22;71.99;98508.42;108970;1251;97499;-79
2023/10/29 08:53:49;;;;;;;8.50;3.00;;;;;;;13.24;71.89;98508.77;108870;1250;108447;-82
2023/10/29 08:56:17;;;;;;;4.70;2.60;;;;;;;13.28;71.97;98512.20;108897;1249;94266;-78
2023/10/29 08:58:46;;;;;;;8.20;2.70;;;;;;;13.34;71.88;98509.50;108933;1251;94309;-78
2023/10/29 09:01:14;;;;;;;7.30;2.60;;;;;;;13.39;71.86;98508.69;108784;1251;109418;-79
2023/10/29 09:03:42;;;;;;;6.40;2.40;;;;;;;13.46;71.86;98511.61;108789;1251;95541;-79
2023/10/29 09:06:12;;;;;;;7.80;2.50;;;;;;;13.55;71.92;98512.44;108872;1249;107700;-79
2023/10/29 09:08:41;;;;;;;7.20;3.20;;;;;;;13.63;71.74;98512.70;108842;1251;94280;-80
2023/10/29 09:11:15;;;;;;;7.50;2.80;;;;;;;13.74;71.84;98507.21;108881;1250;94491;-80
2023/10/29 09:13:43;;;;;;;6.20;3.00;;;;;;;13.85;71.72;98507.98;108990;1250;110614;-79
2023/10/29 09:16:12;;;;;;;9.70;2.80;;;;;;;13.93;71.76;98508.95;108748;1250;95245;-81
2023/10/29 09:18:40;;;;;;;7.00;2.90;;;;;;;14.02;71.72;98508.71;108777;1250;108012;-79
2023/10/29 09:21:10;;;;;;;7.50;2.70;;;;;;;14.10;71.79;98504.89;108854;1251;94337;-82
2023/10/29 09:23:39;;;;;;;6.80;2.40;;;;;;;14.18;71.65;98504.13;108908;1251;94280;-79
2023/10/29 09:26:08;;;;;;;6.20;2.30;;;;;;;14.23;71.59;98503.68;108919;1249;110240;-78
2023/10/29 09:29:02;;;;;;;6.60;2.50;;;;;;;14.29;71.57;98507.92;108833;1249;94268;-80
2023/10/29 09:31:44;;;;;;;8.40;2.60;;;;;;;14.37;71.71;98503.52;108683;1251;108848;-82
2023/10/29 09:34:29;;;;;;;12.40;2.90;;;;;;;14.47;71.55;98503.98;108720;1249;94249;-77
2023/10/29 09:37:00;;;;;;;3.70;2.20;;;;;;;14.54;71.69;98505.63;108678;1251;94561;-80
2023/10/29 09:39:38;;;;;;;5.60;2.50;;;;;;;14.62;71.60;98506.90;108821;1250;109663;-80
2023/10/29 09:42:33;;;;;;;8.40;2.90;;;;;;;14.64;71.55;98505.35;108879;1250;95539;-78
2023/10/29 09:45:16;;;;;;;7.00;2.60;;;;;;;14.68;71.51;98502.71;108710;1250;108047;-78
2023/10/29 09:48:27;;;;;;;;;;;;;;;;;;;;;
2023/10/29 09:51:15;;;;;;;9.30;2.50;;;;;;;14.68;71.35;98498.39;108739;1250;94395;-77
2023/10/29 09:54:02;;;;;;;7.80;2.70;;;;;;;14.68;71.32;98495.73;108668;1253;109993;-78
2023/10/29 09:56:50;;;;;;;5.80;2.50;;;;;;;14.67;71.35;98492.06;108614;1251;95782;-77
2023/10/29 09:59:36;;;;;;;;;;;;;;;;;;;;;
2023/10/29 10:02:32;;;;;;;;;;;;;;;;;;;;;
2023/10/29 10:05:54;;;;;;;4.20;2.50;;;;;;;14.64;71.08;98487.23;108597;1249;94426;-75
2023/10/29 10:09:25;;;;;;;6.00;2.50;;;;;;;14.70;71.24;98494.62;108774;1250;110424;-77
2023/10/29 10:12:25;;;;;;;8.40;2.40;;;;;;;14.72;71.23;98504.57;108513;1254;95426;-76
2023/10/29 10:15:18;;;;;;;4.20;2.20;;;;;;;14.71;70.97;98500.80;108561;1251;109197;-76
2023/10/29 10:18:07;;;;;;;6.70;3.40;;;;;;;14.68;71.01;98497.34;108779;1249;94311;-76
2023/10/29 10:20:49;;;;;;;6.80;2.60;;;;;;;14.66;70.99;98492.23;108818;1249;94365;-75
2023/10/29 10:24:11;;;;;;;6.50;2.80;;;;;;;14.63;70.86;98485.84;108734;1251;109899;-76
2023/10/29 10:27:20;;;;;;;7.90;3.70;;;;;;;14.61;70.89;98481.75;108713;1251;95453;-76
2023/10/29 10:30:29;;;;;;;5.40;2.50;;;;;;;14.61;70.98;98485.33;108798;1253;108959;-75
2023/10/29 10:33:25;;;;;;;8.20;3.30;;;;;;;14.62;70.86;98480.85;108808;1249;94385;-75
2023/10/29 10:36:42;;;;;;;;;;;;;;;;;;;;;
2023/10/29 10:40:00;;;;;;;10.30;4.10;;;;;;;14.63;70.67;98468.96;108201;1257;111123;-75
2023/10/29 10:46:50;;;;;;;;;;;;;;;;;;;;;
2023/10/29 10:49:55;;;;;;;7.90;3.70;;;;;;;14.70;70.62;98460.98;108780;1250;94519;-77
2023/10/29 10:57:49;;;;;;;;;;;;;;;;;;;;;
2023/10/29 11:04:18;;;;;;;9.10;4.20;;;;;;;14.75;70.50;98452.00;102684;1291;648977;-77
2023/10/29 11:07:06;;;;;;;8.20;4.00;;;;;;;14.76;70.52;98447.52;105232;1262;94403;-76
2023/10/29 11:09:49;;;;;;;;;;;;;;;;;;;;;
2023/10/29 11:12:20;;;;;;;8.40;3.50;;;;;;;14.76;70.45;98444.44;105154;1259;107179;-77
2023/10/29 11:15:19;;;;;;;12.70;4.30;;;;;;;14.78;70.48;98435.88;104911;1265;94331;-75
2023/10/29 11:18:09;;;;;;;12.10;4.00;;;;;;;14.78;70.38;98433.41;104874;1268;189388;-75
2023/10/29 11:20:51;;;;;;;9.30;3.80;;;;;;;14.76;70.33;98427.38;105038;1262;94403;-76
2023/10/29 11:23:35;;;;;;;8.80;3.60;;;;;;;14.75;70.39;98426.36;105151;1260;94299;-77
2023/10/29 11:26:42;;;;;;;18.30;8.90;;;;;;;14.79;70.34;98427.40;102470;1300;636105;-75
2023/10/29 11:29:53;;;;;;;;;;;;;;;;;;;;;
2023/10/29 11:32:35;;;;;;;21.60;6.60;;;;;;;14.78;70.39;98432.63;104975;1263;95191;-78
2023/10/29 11:35:22;;;;;;;12.90;5.20;;;;;;;14.77;70.24;98430.60;104779;1265;107050;-75
2023/10/29 11:37:53;;;;;;;10.40;3.80;;;;;;;14.77;70.23;98427.05;105101;1263;95665;-77
2023/10/29 11:40:39;;;;;;;13.40;4.40;;;;;;;14.77;70.17;98423.70;104848;1254;295840;-76
2023/10/29 11:43:19;;;;;;;9.70;4.40;;;;;;;14.75;70.22;98421.86;105197;1254;95173;-75
2023/10/29 11:46:04;;;;;;;9.70;4.70;;;;;;;14.77;70.16;98421.16;105414;1254;94322;-77
2023/10/29 11:49:07;;;;;;;7.90;3.90;;;;;;;14.78;70.11;98422.16;105227;1260;107153;-75
2023/10/29 11:52:07;;;;;;;7.10;3.70;;;;;;;14.77;70.04;98421.67;105371;1251;95687;-76
2023/10/29 11:54:50;;;;;;;12.60;4.50;;;;;;;14.80;70.12;98417.30;105585;1251;107626;-75
2023/10/29 11:57:30;;;;;;;10.80;4.40;;;;;;;14.83;70.12;98415.92;105467;1252;95313;-74
2023/10/29 12:00:39;;;;;;;8.20;4.30;;;;;;;14.86;69.99;98409.42;105402;1256;95278;-76
2023/10/29 12:03:31;;;;;;;;;;;;;;;14.86;70.03;98410.10;105244;1257;108531;-77
2023/10/29 12:06:04;;;;;;;17.00;5.30;;;;;;;14.84;69.99;98410.12;105526;1256;95484;-77
2023/10/29 12:08:40;;;;;;;12.70;4.60;;;;;;;14.85;69.93;98410.40;105481;1257;107666;-78
2023/10/29 12:11:13;;;;;;;10.90;4.00;;;;;;;14.86;70.01;98408.99;105396;1260;95322;-77
2023/10/29 12:13:45;;;;;;;13.70;4.90;;;;;;;14.87;69.90;98406.94;108019;1253;96184;-76
2023/10/29 12:16:15;;;;;;;10.30;4.30;;;;;;;14.87;69.89;98401.23;105185;1258;109107;-78